Time;durP1;ratioP1;P1;durP2;ratioP2;P2;SDS_P1;SDS_P2;PMS_P1;PMS_P2;Temp;Humidity;BMP_temperature;BMP_pressure;BME280_temperature;BME280_humidity;BME280_pressure;Samples;Min_cycle;Max_cycle;Signal;HPM_P1;HPM_P2
2021/07/28 00:00:09;;;;;;;22.65;12.25;;;;;;;25.82;45.69;99719.50;5006076;28;20026;-69
2021/07/28 00:02:34;;;;;;;21.80;13.05;;;;;;;25.74;45.37;99718.03;5010568;28;20423;-69
2021/07/28 00:05:00;;;;;;;21.70;11.93;;;;;;;25.68;45.20;99714.03;5006016;28;20085;-70
2021/07/28 00:07:25;;;;;;;24.20;12.35;;;;;;;25.86;45.20;99708.00;5009782;28;20030;-70
2021/07/28 00:09:50;;;;;;;25.77;12.13;;;;;;;25.74;45.31;99712.31;5007220;28;20029;-69
2021/07/28 00:12:16;;;;;;;35.15;12.45;;;;;;;25.58;45.66;99712.97;5001779;28;20026;-69
2021/07/28 00:14:41;;;;;;;24.17;12.40;;;;;;;25.69;45.50;99713.59;5003455;28;20041;-70
2021/07/28 00:17:10;;;;;;;25.90;13.05;;;;;;;25.45;46.14;99718.44;5006717;28;20026;-68
2021/07/28 00:25:09;;;;;;;26.02;11.75;;;;;;;25.50;45.51;99703.66;5002398;28;20044;-69
2021/07/28 00:27:35;;;;;;;18.10;11.50;;;;;;;25.61;45.21;99703.50;5010326;28;20033;-68
2021/07/28 00:30:02;;;;;;;21.05;11.90;;;;;;;25.68;44.93;99700.53;5010320;28;20451;-68
2021/07/28 00:32:27;;;;;;;19.90;11.88;;;;;;;25.89;44.51;99701.41;5007336;28;20052;-70
2021/07/28 00:34:53;;;;;;;18.27;12.10;;;;;;;25.78;44.68;99696.69;5007734;28;20086;-69
2021/07/28 00:37:18;;;;;;;24.80;12.25;;;;;;;25.75;44.50;99706.13;5004165;28;20480;-69
2021/07/28 00:39:43;;;;;;;23.73;13.38;;;;;;;25.79;44.25;99708.94;5005581;28;20038;-68
2021/07/28 00:42:09;;;;;;;21.23;12.60;;;;;;;25.53;44.27;99702.81;5007749;28;20030;-68
2021/07/28 00:44:34;;;;;;;35.72;13.23;;;;;;;25.48;44.41;99706.13;5009995;28;20492;-69
2021/07/28 00:47:00;;;;;;;22.90;13.30;;;;;;;25.40;44.58;99699.72;5004758;28;20116;-68
2021/07/28 00:49:25;;;;;;;37.42;14.00;;;;;;;25.26;44.59;99700.72;5010182;28;20030;-69
2021/07/28 00:51:51;;;;;;;17.90;11.25;;;;;;;25.20;44.80;99702.44;4998294;28;20029;-69
2021/07/28 00:54:17;;;;;;;19.33;11.45;;;;;;;25.13;45.06;99706.19;5010620;28;20034;-68
2021/07/28 00:56:44;;;;;;;22.90;12.60;;;;;;;25.07;45.41;99705.88;5009690;28;20030;-68
2021/07/28 00:59:10;;;;;;;29.95;13.40;;;;;;;25.19;44.62;99712.25;5009516;28;20037;-68
2021/07/28 01:01:38;;;;;;;19.25;11.65;;;;;;;24.92;45.08;99704.44;5019404;28;20460;-68
2021/07/28 01:04:04;;;;;;;19.48;11.88;;;;;;;24.80;45.33;99702.97;5011740;28;20056;-69
2021/07/28 01:06:33;;;;;;;23.42;11.30;;;;;;;24.77;45.99;99700.94;5013411;28;20038;-69
2021/07/28 01:09:00;;;;;;;17.60;11.68;;;;;;;24.65;46.19;99708.03;5011973;28;20036;-68
2021/07/28 01:11:26;;;;;;;19.65;12.10;;;;;;;24.68;46.18;99702.25;5028871;28;20046;-68
2021/07/28 01:13:52;;;;;;;19.77;12.35;;;;;;;24.53;46.54;99706.50;5012318;28;20029;-69
2021/07/28 01:16:22;;;;;;;18.85;11.65;;;;;;;24.61;45.99;99701.50;5028702;28;20088;-68
2021/07/28 01:18:50;;;;;;;19.30;11.98;;;;;;;24.29;47.05;99702.69;5007608;28;20053;-69
2021/07/28 01:21:17;;;;;;;19.23;12.25;;;;;;;24.11;47.61;99710.22;5013278;28;20498;-68
2021/07/28 01:23:45;;;;;;;22.85;12.95;;;;;;;23.99;48.02;99707.84;5013892;28;20719;-69
2021/07/28 01:26:11;;;;;;;25.70;13.68;;;;;;;23.90;48.16;99701.81;5013329;28;20113;-68
2021/07/28 01:28:37;;;;;;;29.05;12.07;;;;;;;23.98;47.90;99704.16;5011207;28;20046;-70
2021/07/28 01:31:06;;;;;;;19.15;11.35;;;;;;;23.85;48.15;99697.34;5008873;28;20060;-69
2021/07/28 01:33:33;;;;;;;22.65;11.20;;;;;;;23.90;47.60;99696.91;5011241;28;20030;-68
2021/07/28 01:36:04;;;;;;;17.25;12.02;;;;;;;23.80;48.08;99697.81;5009989;28;20037;-69
2021/07/28 01:38:31;;;;;;;23.45;12.48;;;;;;;23.86;47.89;99698.16;5006245;28;20038;-68
2021/07/28 01:40:59;;;;;;;17.40;11.70;;;;;;;23.73;48.22;99700.72;5013004;28;20100;-69
2021/07/28 01:43:27;;;;;;;23.23;11.88;;;;;;;23.79;48.38;99702.69;5013306;28;20511;-69
2021/07/28 01:45:53;;;;;;;20.52;11.88;;;;;;;23.83;47.91;99697.78;5007861;28;20026;-69
2021/07/28 01:48:19;;;;;;;26.98;13.38;;;;;;;23.94;47.34;99694.81;5012982;28;20128;-69
2021/07/28 01:50:48;;;;;;;20.38;12.13;;;;;;;23.87;47.78;99694.88;5012803;28;20173;-69
2021/07/28 01:53:14;;;;;;;21.20;12.57;;;;;;;23.85;47.79;99694.50;5013281;28;20026;-68
2021/07/28 01:55:40;;;;;;;28.42;12.43;;;;;;;23.77;48.18;99699.47;5010582;28;20040;-70
2021/07/28 01:58:06;;;;;;;21.92;12.55;;;;;;;23.78;48.19;99695.38;5009115;28;20037;-69
2021/07/28 02:00:31;;;;;;;21.98;13.07;;;;;;;23.48;48.67;99687.44;5008817;28;20034;-68
2021/07/28 02:03:02;;;;;;;25.45;12.50;;;;;;;23.36;49.06;99688.75;5010737;28;20030;-70
2021/07/28 02:05:32;;;;;;;17.98;12.55;;;;;;;23.38;48.76;99692.81;5006386;28;20038;-69
2021/07/28 02:08:02;;;;;;;27.13;13.57;;;;;;;23.24;49.09;99698.56;5011124;28;20033;-69
2021/07/28 02:10:29;;;;;;;17.33;12.77;;;;;;;23.36;48.88;99691.63;5011330;28;20041;-69
2021/07/28 02:12:55;;;;;;;28.83;12.45;;;;;;;23.68;48.13;99696.25;5009203;28;20022;-68
2021/07/28 02:15:23;;;;;;;18.52;13.25;;;;;;;23.57;48.35;99684.94;5004827;28;20034;-70
2021/07/28 02:17:49;;;;;;;23.48;12.32;;;;;;;23.57;48.59;99693.50;5012345;28;20038;-68
2021/07/28 02:20:15;;;;;;;20.42;13.73;;;;;;;23.52;48.80;99689.03;5012466;28;20061;-68
2021/07/28 02:22:42;;;;;;;20.25;12.43;;;;;;;23.23;49.38;99694.09;5002812;28;20085;-70
2021/07/28 02:25:08;;;;;;;24.60;12.10;;;;;;;23.16;49.93;99694.13;5010912;28;20038;-69
2021/07/28 02:27:33;;;;;;;24.38;14.93;;;;;;;23.38;48.78;99684.25;5027691;28;20041;-69
2021/07/28 02:29:59;;;;;;;29.15;13.27;;;;;;;23.20;49.79;99697.78;5011502;28;20423;-69
2021/07/28 02:32:25;;;;;;;19.20;13.07;;;;;;;23.32;49.85;99697.34;5004212;28;20037;-68
2021/07/28 02:34:50;;;;;;;20.45;13.05;;;;;;;23.16;49.89;99702.69;5011955;28;20092;-69
2021/07/28 02:37:16;;;;;;;24.88;13.27;;;;;;;23.27;49.96;99703.47;5011979;28;20472;-68
2021/07/28 02:39:41;;;;;;;23.40;12.93;;;;;;;23.22;49.98;99706.75;5007488;28;20100;-68
2021/07/28 02:42:06;;;;;;;24.40;13.20;;;;;;;23.40;49.96;99703.81;5008927;28;20021;-68
2021/07/28 02:44:32;;;;;;;21.17;12.35;;;;;;;23.26;50.19;99714.06;5000793;28;20048;-69
2021/07/28 02:46:57;;;;;;;23.08;12.50;;;;;;;23.31;49.90;99715.69;5011498;28;20030;-69
2021/07/28 02:49:23;;;;;;;26.75;13.77;;;;;;;23.26;50.01;99707.53;5010034;28;20034;-68
2021/07/28 02:51:48;;;;;;;28.80;13.55;;;;;;;23.13;50.65;99710.06;5019632;28;20030;-68
2021/07/28 02:54:17;;;;;;;30.38;12.90;;;;;;;23.32;49.80;99714.47;5009236;28;20056;-68
2021/07/28 02:56:42;;;;;;;35.60;13.43;;;;;;;23.32;49.77;99714.47;5011487;28;20058;-69
2021/07/28 02:59:07;;;;;;;23.13;14.48;;;;;;;23.28;49.82;99708.78;5004498;28;20044;-69
2021/07/28 03:01:33;;;;;;;20.58;15.13;;;;;;;23.06;50.61;99710.09;5010890;28;20069;-69
2021/07/28 03:03:59;;;;;;;27.85;13.23;;;;;;;23.21;50.23;99719.38;5007221;28;20206;-68
2021/07/28 03:06:24;;;;;;;28.38;15.50;;;;;;;22.97;50.82;99711.34;4994825;28;20046;-70
2021/07/28 03:08:50;;;;;;;24.10;15.38;;;;;;;22.79;51.31;99719.16;5009739;28;20064;-69
2021/07/28 03:11:15;;;;;;;21.25;14.77;;;;;;;22.62;51.58;99710.25;5008185;28;20035;-69
2021/07/28 03:13:40;;;;;;;26.90;13.95;;;;;;;22.58;51.69;99721.69;5009370;28;20034;-68
2021/07/28 03:16:07;;;;;;;27.45;14.75;;;;;;;22.47;52.29;99726.56;5010113;28;20026;-68
2021/07/28 03:18:33;;;;;;;26.35;14.27;;;;;;;22.90;51.07;99719.94;5002614;28;20053;-68
2021/07/28 03:20:58;;;;;;;25.63;13.48;;;;;;;22.80;51.21;99720.78;5006493;28;20033;-69
2021/07/28 03:23:23;;;;;;;24.52;13.25;;;;;;;22.71;51.23;99716.34;5002972;28;20482;-68
2021/07/28 03:25:49;;;;;;;31.48;15.13;;;;;;;22.63;51.58;99713.94;5005646;28;20049;-69
2021/07/28 03:28:14;;;;;;;25.42;14.20;;;;;;;22.78;51.14;99715.50;5011192;28;20037;-68
2021/07/28 03:30:40;;;;;;;24.38;13.43;;;;;;;22.63;51.36;99717.59;5009152;28;20105;-68
2021/07/28 03:33:05;;;;;;;22.05;12.88;;;;;;;22.61;51.53;99714.34;5019858;28;20034;-69
2021/07/28 03:35:31;;;;;;;17.13;13.82;;;;;;;22.58;51.73;99710.28;5010659;28;20032;-68
2021/07/28 03:37:56;;;;;;;22.98;13.93;;;;;;;22.51;52.09;99709.50;5009495;28;20033;-68
2021/07/28 03:40:22;;;;;;;23.77;13.63;;;;;;;22.72;51.45;99720.81;5005638;28;20030;-69
2021/07/28 03:42:48;;;;;;;22.27;14.20;;;;;;;22.82;51.15;99719.16;5008600;28;20025;-69
2021/07/28 03:45:13;;;;;;;29.13;14.38;;;;;;;22.77;51.30;99711.03;5010494;28;20045;-69
2021/07/28 03:47:39;;;;;;;27.73;13.77;;;;;;;22.68;51.63;99716.34;5004366;28;20025;-69
2021/07/28 03:50:05;;;;;;;23.08;14.32;;;;;;;22.85;51.14;99709.78;5004868;28;20065;-70
2021/07/28 03:52:31;;;;;;;31.45;13.77;;;;;;;23.22;50.22;99712.44;5004990;28;20073;-69
2021/07/28 03:54:56;;;;;;;25.55;15.02;;;;;;;23.01;50.87;99714.19;5010842;28;20022;-69
2021/07/28 03:57:22;;;;;;;19.60;14.52;;;;;;;22.96;51.02;99717.47;5010655;28;20068;-69
2021/07/28 03:59:48;;;;;;;30.10;14.25;;;;;;;23.06;50.59;99710.09;5008481;28;20048;-68
2021/07/28 04:02:13;;;;;;;28.25;13.80;;;;;;;23.22;50.56;99718.16;5010537;28;20018;-71
2021/07/28 04:04:39;;;;;;;23.70;13.23;;;;;;;23.37;50.00;99722.56;5006951;28;20061;-69
2021/07/28 04:07:06;;;;;;;28.90;13.43;;;;;;;23.07;51.03;99712.53;5008785;28;20438;-70
2021/07/28 04:09:32;;;;;;;20.67;12.57;;;;;;;23.14;50.53;99712.47;5003236;28;20065;-69
2021/07/28 04:11:57;;;;;;;28.27;13.57;;;;;;;22.94;51.25;99717.88;5007564;28;20034;-72
2021/07/28 04:14:23;;;;;;;20.75;12.95;;;;;;;23.08;50.95;99725.56;5008720;28;20042;-70
2021/07/28 04:16:48;;;;;;;31.50;14.55;;;;;;;23.01;51.52;99719.88;4995449;28;20448;-70
2021/07/28 04:19:13;;;;;;;24.73;14.77;;;;;;;22.82;52.22;99719.16;5008317;28;20113;-71
2021/07/28 04:21:39;;;;;;;22.83;14.45;;;;;;;22.97;51.65;99719.91;5009752;28;20030;-68
2021/07/28 04:24:05;;;;;;;23.20;14.13;;;;;;;23.02;51.95;99715.00;5008972;28;20129;-68
2021/07/28 04:26:30;;;;;;;22.10;15.32;;;;;;;23.06;52.06;99715.78;5004813;28;20053;-69
2021/07/28 04:28:56;;;;;;;26.48;14.30;;;;;;;23.16;52.02;99719.81;5008445;28;20030;-68
2021/07/28 04:31:21;;;;;;;21.30;13.73;;;;;;;23.09;52.41;99717.81;5006971;28;20045;-68
2021/07/28 04:33:47;;;;;;;20.67;13.57;;;;;;;23.09;52.54;99715.78;5008555;28;20026;-69
2021/07/28 04:36:12;;;;;;;17.98;13.98;;;;;;;22.98;52.95;99720.72;4998354;28;20030;-68
2021/07/28 04:38:38;;;;;;;22.63;14.98;;;;;;;23.19;52.92;99716.13;5010096;28;20419;-69
2021/07/28 04:41:03;;;;;;;23.60;13.48;;;;;;;23.19;52.51;99724.69;5014374;28;20036;-68
2021/07/28 04:43:28;;;;;;;20.15;13.02;;;;;;;23.32;52.30;99717.31;5014193;28;20026;-68
2021/07/28 04:46:01;;;;;;;23.52;13.65;;;;;;;23.34;52.00;99719.72;5007845;28;20050;-69
2021/07/28 04:48:28;;;;;;;18.48;13.18;;;;;;;23.32;51.97;99720.16;5008995;28;20175;-68
2021/07/28 04:50:54;;;;;;;20.13;13.05;;;;;;;23.42;52.11;99721.31;5014126;28;20022;-69
2021/07/28 04:53:20;;;;;;;22.83;13.55;;;;;;;23.45;51.74;99725.38;5011805;28;20508;-68
2021/07/28 04:55:53;;;;;;;25.08;13.27;;;;;;;23.53;51.32;99716.34;5028618;28;20141;-69
2021/07/28 04:58:19;;;;;;;24.13;13.13;;;;;;;23.55;51.35;99713.88;5014083;28;20470;-68
2021/07/28 05:00:45;;;;;;;28.50;14.82;;;;;;;23.56;51.62;99720.41;5013844;28;20032;-68
2021/07/28 05:03:10;;;;;;;23.75;15.02;;;;;;;23.67;51.31;99720.34;5007789;28;20392;-68
2021/07/28 05:05:36;;;;;;;37.03;15.85;;;;;;;23.82;50.53;99721.03;5009865;28;20041;-69
2021/07/28 05:08:01;;;;;;;32.03;13.98;;;;;;;23.79;50.66;99711.25;5013998;28;20080;-69
2021/07/28 05:10:27;;;;;;;32.63;14.18;;;;;;;23.83;50.61;99711.25;5011159;28;20474;-69
2021/07/28 05:12:52;;;;;;;30.30;14.80;;;;;;;23.92;50.45;99720.16;5010043;28;20053;-68
2021/07/28 05:15:18;;;;;;;26.25;14.55;;;;;;;23.88;50.41;99713.63;5013747;28;20484;-68
2021/07/28 05:17:43;;;;;;;18.63;13.95;;;;;;;24.02;50.12;99714.75;5010878;28;20026;-68
2021/07/28 05:20:09;;;;;;;25.13;13.98;;;;;;;23.91;50.41;99712.81;5013499;28;20052;-69
2021/07/28 05:22:35;;;;;;;25.63;12.80;;;;;;;24.06;50.19;99713.50;5011716;28;20038;-69
2021/07/28 05:25:01;;;;;;;56.33;17.13;;;;;;;24.27;50.13;99713.75;5012031;28;20474;-70
2021/07/28 05:27:28;;;;;;;34.88;13.52;;;;;;;24.39;50.08;99725.44;5028560;28;20120;-70
2021/07/28 05:29:54;;;;;;;36.25;14.90;;;;;;;24.48;49.89;99721.28;5010801;28;20041;-70
2021/07/28 05:32:21;;;;;;;23.42;13.23;;;;;;;24.54;49.08;99725.28;5011973;28;20026;-69
2021/07/28 05:34:47;;;;;;;30.58;15.60;;;;;;;24.70;49.15;99721.03;5013073;28;20053;-69
2021/07/28 05:37:12;;;;;;;35.10;15.20;;;;;;;24.74;49.04;99716.91;5008158;28;20054;-68
2021/07/28 05:39:37;;;;;;;29.73;14.07;;;;;;;24.84;48.58;99723.75;5008496;28;20527;-68
2021/07/28 05:42:03;;;;;;;22.67;15.63;;;;;;;24.93;48.52;99724.06;5012862;28;20029;-69
2021/07/28 05:44:29;;;;;;;21.52;14.57;;;;;;;25.11;48.33;99722.19;5011845;28;20034;-68
2021/07/28 05:46:55;;;;;;;25.92;15.88;;;;;;;25.21;47.96;99724.06;5011432;28;20511;-69
2021/07/28 05:49:20;;;;;;;19.75;15.02;;;;;;;25.28;47.70;99726.84;5006974;28;20037;-69
2021/07/28 05:51:46;;;;;;;19.73;13.40;;;;;;;25.40;47.80;99721.78;5012963;28;20972;-68
2021/07/28 05:54:12;;;;;;;20.27;11.85;;;;;;;25.41;47.22;99718.50;5013114;28;20053;-68
2021/07/28 05:56:37;;;;;;;20.33;10.88;;;;;;;25.51;46.91;99722.47;5010875;28;20084;-69
2021/07/28 05:59:03;;;;;;;26.63;12.73;;;;;;;25.61;46.66;99730.09;5011356;28;20026;-69
2021/07/28 06:01:28;;;;;;;22.13;12.48;;;;;;;25.72;46.43;99723.38;5012898;28;20022;-70
2021/07/28 06:03:54;;;;;;;21.42;10.93;;;;;;;25.85;47.04;99718.66;5012940;28;20450;-68
2021/07/28 06:06:19;;;;;;;20.52;10.80;;;;;;;25.94;45.77;99720.97;5007703;28;20117;-69
2021/07/28 06:08:44;;;;;;;16.23;9.05;;;;;;;26.00;44.98;99718.41;5013042;28;20442;-68
2021/07/28 06:11:10;;;;;;;18.85;10.32;;;;;;;26.12;44.40;99714.94;5012191;28;20026;-68
2021/07/28 06:13:35;;;;;;;15.55;9.82;;;;;;;26.19;43.42;99716.88;5012860;28;20034;-68
2021/07/28 06:16:04;;;;;;;13.52;9.52;;;;;;;26.19;43.90;99717.72;5008599;28;20036;-68
2021/07/28 06:18:29;;;;;;;15.90;9.70;;;;;;;26.30;44.18;99714.63;5011983;28;20050;-69
2021/07/28 06:20:55;;;;;;;16.00;9.65;;;;;;;26.38;43.78;99715.31;5012295;28;20049;-73
2021/07/28 06:23:20;;;;;;;12.13;8.93;;;;;;;26.44;42.75;99715.59;5012462;28;20037;-67
2021/07/28 06:25:46;;;;;;;12.95;8.30;;;;;;;26.55;42.64;99712.56;5009308;28;20034;-69
2021/07/28 06:28:11;;;;;;;16.05;8.90;;;;;;;26.66;42.28;99730.31;5012321;28;20435;-67
2021/07/28 06:30:37;;;;;;;12.57;8.45;;;;;;;26.74;42.56;99722.41;5012267;28;20030;-67
2021/07/28 06:33:03;;;;;;;14.55;9.35;;;;;;;26.88;42.17;99716.41;5009877;28;20033;-68
2021/07/28 06:35:28;;;;;;;16.63;9.40;;;;;;;26.98;42.29;99716.63;5002590;28;20034;-67
2021/07/28 06:37:54;;;;;;;12.85;8.98;;;;;;;26.99;42.03;99718.25;5009894;28;20480;-69
2021/07/28 06:40:19;;;;;;;22.98;10.00;;;;;;;27.05;42.59;99716.44;5010414;28;20061;-68
2021/07/28 06:42:45;;;;;;;28.20;9.70;;;;;;;27.11;41.71;99713.88;5006964;28;20036;-69
2021/07/28 06:45:10;;;;;;;14.43;9.23;;;;;;;27.17;41.58;99712.91;5006516;28;20092;-69
2021/07/28 06:47:36;;;;;;;11.77;9.85;;;;;;;27.26;42.06;99708.63;5009910;28;20026;-69
2021/07/28 06:50:03;;;;;;;32.50;10.15;;;;;;;27.35;42.02;99708.00;5009773;28;20455;-68
2021/07/28 06:52:28;;;;;;;19.35;10.13;;;;;;;27.41;42.13;99704.16;5007597;28;20029;-68
2021/07/28 06:54:54;;;;;;;18.10;9.35;;;;;;;27.48;41.76;99697.44;5010757;28;20096;-68
2021/07/28 06:57:19;;;;;;;20.70;9.68;;;;;;;27.55;40.40;99699.34;5011438;28;20030;-69
2021/07/28 06:59:45;;;;;;;18.70;9.45;;;;;;;27.63;40.75;99702.88;5011636;28;20038;-70
2021/07/28 07:02:10;;;;;;;12.30;8.80;;;;;;;27.72;41.19;99701.00;5000966;28;20026;-69
2021/07/28 07:04:36;;;;;;;18.70;9.55;;;;;;;27.80;41.45;99693.00;5010363;28;20042;-70
2021/07/28 07:07:01;;;;;;;19.67;9.85;;;;;;;27.82;40.61;99693.38;5007961;28;20041;-70
2021/07/28 07:09:27;;;;;;;14.70;8.35;;;;;;;27.88;40.47;99682.97;5008689;28;20052;-69
2021/07/28 07:11:52;;;;;;;31.27;9.75;;;;;;;28.02;40.13;99695.34;5008112;28;20026;-70
2021/07/28 07:14:17;;;;;;;16.65;8.52;;;;;;;28.00;40.03;99686.38;5009600;28;20029;-70
2021/07/28 07:16:43;;;;;;;26.00;9.95;;;;;;;28.06;39.82;99690.28;5009120;28;20037;-70
2021/07/28 07:19:08;;;;;;;20.38;8.50;;;;;;;28.17;39.33;99687.97;5002231;28;20050;-71
2021/07/28 07:21:34;;;;;;;21.02;9.50;;;;;;;28.20;40.35;99688.31;5009099;28;20257;-69
2021/07/28 07:23:59;;;;;;;19.95;8.30;;;;;;;28.33;39.94;99697.81;5009784;28;20030;-70
2021/07/28 07:26:25;;;;;;;29.45;8.75;;;;;;;28.38;39.25;99693.59;5026172;28;20045;-73
2021/07/28 07:28:50;;;;;;;18.23;8.25;;;;;;;28.57;38.50;99684.00;5024067;28;20037;-72
2021/07/28 07:31:16;;;;;;;18.13;8.40;;;;;;;28.64;38.45;99697.38;5011054;28;20038;-71
2021/07/28 07:33:42;;;;;;;16.08;8.93;;;;;;;28.77;38.66;99691.66;5009717;28;20033;-74
2021/07/28 07:36:14;;;;;;;14.07;7.45;;;;;;;28.84;38.08;99677.09;5010660;28;20423;-71
2021/07/28 07:38:40;;;;;;;13.10;9.02;;;;;;;28.80;37.95;99679.25;5000820;28;20077;-71
2021/07/28 07:41:06;;;;;;;35.20;9.55;;;;;;;28.85;38.32;99677.91;5007291;28;20041;-72
2021/07/28 07:43:32;;;;;;;21.08;8.25;;;;;;;28.93;37.85;99676.41;5007102;28;20026;-72
2021/07/28 07:45:58;;;;;;;17.77;7.65;;;;;;;28.99;36.18;99668.84;5009123;28;20041;-72
2021/07/28 07:48:24;;;;;;;14.18;8.07;;;;;;;29.19;37.05;99670.69;5003404;28;20112;-71
2021/07/28 07:50:49;;;;;;;12.68;8.15;;;;;;;29.20;35.81;99668.63;5008766;28;20604;-73
2021/07/28 07:53:15;;;;;;;17.65;7.65;;;;;;;29.29;36.16;99663.78;5007232;28;20037;-72
2021/07/28 07:55:41;;;;;;;12.75;8.32;;;;;;;29.48;36.33;99666.94;5005652;28;20412;-72
2021/07/28 07:58:06;;;;;;;29.63;9.52;;;;;;;29.50;36.83;99664.38;5006329;28;20029;-71
2021/07/28 08:00:32;;;;;;;12.35;8.30;;;;;;;29.55;36.09;99660.91;5008371;28;20120;-72
2021/07/28 08:02:57;;;;;;;16.00;8.60;;;;;;;29.70;36.46;99655.47;5007660;28;20065;-73
2021/07/28 08:05:22;;;;;;;13.07;8.65;;;;;;;29.91;35.85;99656.03;5007213;28;20041;-73
2021/07/28 08:07:48;;;;;;;14.77;7.47;;;;;;;29.99;35.06;99656.56;5010446;28;20045;-73
2021/07/28 08:10:14;;;;;;;20.42;8.55;;;;;;;30.10;36.00;99659.91;5033690;28;20029;-73
2021/07/28 08:12:40;;;;;;;15.27;7.43;;;;;;;30.07;34.51;99657.97;5009968;28;20030;-73
2021/07/28 08:15:06;;;;;;;11.73;7.90;;;;;;;30.28;35.42;99661.34;5006369;28;20084;-73
2021/07/28 08:17:32;;;;;;;13.13;7.07;;;;;;;30.36;34.61;99661.91;5008676;28;20442;-74
2021/07/28 08:20:00;;;;;;;10.60;7.15;;;;;;;30.43;33.72;99652.19;5009879;28;20046;-73
2021/07/28 08:22:29;;;;;;;11.65;7.22;;;;;;;30.50;34.01;99654.78;5007909;28;20031;-74
2021/07/28 08:24:54;;;;;;;9.63;7.28;;;;;;;30.58;34.98;99644.59;5023982;28;20718;-73
2021/07/28 08:27:20;;;;;;;13.18;7.53;;;;;;;30.63;34.53;99646.91;5008516;28;20074;-74
2021/07/28 08:29:45;;;;;;;16.10;7.70;;;;;;;30.81;33.44;99646.22;5008659;28;20507;-74
2021/07/28 08:32:11;;;;;;;15.73;7.88;;;;;;;30.88;32.90;99641.44;5005547;28;20034;-74
2021/07/28 08:34:36;;;;;;;12.98;7.60;;;;;;;30.88;33.77;99638.56;5008966;28;20041;-74
2021/07/28 08:37:02;;;;;;;16.55;7.82;;;;;;;31.01;33.84;99638.44;5003715;28;20105;-74
2021/07/28 10:48:36;;;;;;;13.23;6.35;;;;;;;35.03;28.56;99475.47;5003351;28;20044;-69
2021/07/28 10:51:02;;;;;;;15.98;7.20;;;;;;;35.20;27.31;99467.03;5010751;28;20042;-69
2021/07/28 10:53:47;;;;;;;13.80;6.47;;;;;;;35.44;26.53;99468.91;5011643;28;20403;-69
2021/07/28 10:56:12;;;;;;;12.38;7.60;;;;;;;35.51;26.94;99474.31;5011234;28;20025;-72
2021/07/28 10:58:41;;;;;;;12.50;6.95;;;;;;;35.66;27.12;99466.31;5011341;28;20025;-72
2021/07/28 11:01:06;;;;;;;16.52;6.60;;;;;;;35.80;26.01;99466.72;5010098;28;20518;-69
2021/07/28 11:03:33;;;;;;;16.27;7.55;;;;;;;35.96;25.60;99469.03;5011778;28;20030;-69
2021/07/28 11:06:19;;;;;;;15.13;7.28;;;;;;;36.10;24.77;99466.53;5011064;28;20057;-70
2021/07/28 11:08:44;;;;;;;11.25;7.10;;;;;;;36.18;25.45;99453.09;5011616;28;20057;-70
2021/07/28 11:11:19;;;;;;;17.80;6.85;;;;;;;36.31;25.15;99458.53;5005879;28;20059;-70
2021/07/28 11:13:44;;;;;;;25.10;7.60;;;;;;;36.28;25.83;99453.75;5007321;28;20026;-70
2021/07/28 11:16:10;;;;;;;11.10;7.78;;;;;;;36.25;24.77;99451.84;5003891;28;20064;-70
2021/07/28 11:18:41;;;;;;;14.20;7.45;;;;;;;36.28;25.13;99450.84;5010234;28;20033;-70
2021/07/28 11:21:34;;;;;;;12.52;6.95;;;;;;;36.38;25.09;99445.63;5006793;28;20462;-70
2021/07/28 11:24:04;;;;;;;12.43;7.03;;;;;;;36.37;24.92;99436.06;5011088;28;20046;-75
2021/07/28 11:26:34;;;;;;;15.57;6.57;;;;;;;36.50;23.33;99441.47;5010451;28;20032;-75
2021/07/28 11:29:09;;;;;;;17.05;7.53;;;;;;;36.68;23.69;99439.50;5009396;28;20040;-74
2021/07/28 11:31:41;;;;;;;18.88;7.57;;;;;;;36.50;24.09;99441.47;5010450;28;20114;-75
2021/07/28 11:34:13;;;;;;;17.00;7.03;;;;;;;36.62;23.25;99432.84;5011089;28;20039;-74
2021/07/28 11:36:40;;;;;;;17.08;7.10;;;;;;;36.82;23.44;99431.91;5008850;28;20065;-75
2021/07/28 11:39:17;;;;;;;18.25;7.47;;;;;;;36.78;23.80;99425.53;5011103;28;20037;-75
2021/07/28 11:41:46;;;;;;;20.35;7.60;;;;;;;36.75;24.07;99415.72;5010438;28;20433;-75
2021/07/28 11:44:12;;;;;;;21.88;7.90;;;;;;;36.88;23.37;99418.19;5009753;28;20030;-75
2021/07/28 11:46:38;;;;;;;12.40;7.78;;;;;;;37.29;24.11;99416.28;5024297;28;20041;-75
2021/07/28 11:49:06;;;;;;;18.05;6.78;;;;;;;37.36;23.08;99418.72;5010621;28;20072;-75
2021/07/28 11:51:35;;;;;;;19.60;7.95;;;;;;;37.24;23.98;99409.09;5010129;28;20411;-75
2021/07/28 11:54:06;;;;;;;12.68;7.47;;;;;;;37.07;22.51;99401.09;5009850;28;20030;-75
2021/07/28 11:56:32;;;;;;;15.95;7.45;;;;;;;37.10;24.38;99405.06;5010240;28;20040;-74
2021/07/28 11:58:57;;;;;;;22.20;7.68;;;;;;;37.25;23.00;99390.28;5008237;28;20471;-75
2021/07/28 12:01:25;;;;;;;18.15;7.70;;;;;;;37.31;22.61;99396.97;5008325;28;20582;-75
2021/07/28 12:04:08;;;;;;;13.55;7.18;;;;;;;37.01;22.89;99390.72;4998766;28;20109;-74
2021/07/28 12:06:41;;;;;;;26.88;8.50;;;;;;;36.98;23.17;99386.72;5008654;28;20091;-70
2021/07/28 12:09:12;;;;;;;16.65;7.70;;;;;;;37.10;22.32;99387.59;5010323;28;20223;-69
2021/07/28 12:11:49;;;;;;;22.17;8.32;;;;;;;37.08;22.96;99382.28;5010398;28;20030;-71
2021/07/28 12:14:41;;;;;;;17.67;7.20;;;;;;;37.11;23.09;99376.72;5006007;28;20409;-71
2021/07/28 12:17:22;;;;;;;13.88;7.65;;;;;;;37.12;23.08;99375.41;5008611;28;20491;-71
2021/07/28 12:19:52;;;;;;;21.48;7.55;;;;;;;37.47;22.03;99371.28;5001859;28;20030;-71
2021/07/28 12:22:36;;;;;;;11.60;6.88;;;;;;;37.33;21.67;99370.19;5008540;28;20072;-71
2021/07/28 12:25:20;;;;;;;14.52;7.05;;;;;;;37.41;21.41;99364.63;5010028;28;20480;-71
2021/07/28 12:28:12;;;;;;;17.83;7.40;;;;;;;37.57;20.67;99369.75;5002594;28;20490;-71
2021/07/28 12:30:39;;;;;;;18.35;7.95;;;;;;;37.36;19.70;99354.56;5007007;28;20037;-71
2021/07/28 12:33:16;;;;;;;17.42;7.00;;;;;;;37.32;19.22;99351.09;5001500;28;20041;-71
2021/07/28 12:35:53;;;;;;;28.77;6.82;;;;;;;37.57;18.31;99346.41;5005882;28;20428;-72
2021/07/28 12:38:28;;;;;;;15.70;6.47;;;;;;;37.64;19.44;99345.88;5009943;28;20037;-71
2021/07/28 12:41:03;;;;;;;15.82;6.00;;;;;;;37.56;19.86;99336.09;5006869;28;20038;-71
2021/07/28 12:43:36;;;;;;;14.40;6.95;;;;;;;37.77;19.30;99338.72;5007379;28;20041;-71
2021/07/28 12:46:09;;;;;;;18.83;7.03;;;;;;;37.88;18.96;99335.81;5006901;28;20091;-72
2021/07/28 12:48:36;;;;;;;18.00;8.02;;;;;;;37.81;20.42;99332.66;5010252;28;20111;-70
2021/07/28 12:51:03;;;;;;;15.65;6.32;;;;;;;37.89;19.56;99324.97;5008043;28;20567;-72
2021/07/28 12:53:30;;;;;;;26.33;8.68;;;;;;;37.93;20.00;99335.03;5008712;28;20053;-71
2021/07/28 12:55:56;;;;;;;25.17;8.93;;;;;;;37.76;20.36;99326.28;5009934;28;20030;-74
2021/07/28 12:58:22;;;;;;;13.32;7.15;;;;;;;37.65;20.29;99326.28;5008400;28;20029;-72
2021/07/28 13:00:48;;;;;;;17.00;7.10;;;;;;;37.66;20.24;99324.94;5025305;28;20116;-73
2021/07/28 13:03:16;;;;;;;17.30;7.47;;;;;;;37.74;20.11;99319.38;5013930;28;20105;-72
2021/07/28 13:05:44;;;;;;;15.40;7.65;;;;;;;37.75;21.10;99315.13;5013278;28;20045;-72
2021/07/28 13:08:11;;;;;;;28.20;6.70;;;;;;;37.84;21.16;99309.03;5010991;28;20431;-72
2021/07/28 13:10:41;;;;;;;15.80;6.78;;;;;;;37.97;19.76;99313.56;5023444;28;20065;-72
2021/07/28 13:13:08;;;;;;;16.85;6.53;;;;;;;37.90;20.29;99311.97;5011891;28;20053;-72
2021/07/28 13:15:34;;;;;;;18.63;7.40;;;;;;;37.84;20.26;99311.97;5028703;28;20026;-72
2021/07/28 13:18:05;;;;;;;18.80;6.82;;;;;;;37.81;20.68;99309.31;5008172;28;20195;-72
2021/07/28 13:20:32;;;;;;;28.80;8.45;;;;;;;37.83;19.74;99313.28;5013458;28;20037;-72
2021/07/28 13:22:58;;;;;;;20.20;7.30;;;;;;;37.63;19.61;99314.34;5013432;28;20034;-74
2021/07/28 13:25:23;;;;;;;20.10;7.40;;;;;;;37.77;20.19;99312.47;5011888;28;20042;-74
2021/07/28 13:27:49;;;;;;;14.00;6.50;;;;;;;37.75;19.60;99313.03;5009703;28;20030;-74
2021/07/28 13:30:14;;;;;;;15.75;7.10;;;;;;;37.86;19.61;99306.38;5011286;28;20485;-74
2021/07/28 13:32:41;;;;;;;23.13;8.40;;;;;;;37.86;19.48;99296.84;5010795;28;20053;-73
2021/07/28 13:35:09;;;;;;;20.65;7.20;;;;;;;37.89;19.89;99299.50;5010050;28;20582;-74